Fairacres, New Mexico
Current Conditions -  °F | °C
As of 3:55 AM on Monday 20 Oct 2014 (Local Time) from KLRU Reporting Station
Clear Clear  
Wind Chill: 56°   Ceiling: Unl
Heat Index: 56°   Visibility: 10mi
Dew Point: 53°   Wind: 7mph
Humidity: 90%   Direction: 330°NNW
Pressure: 30.09"   Gusts: NA
Location:  32.31°N, 106.84°W
Report Text: KLRU 200955Z AUTO 33006KT 10SM CLR 13/12 A3009 RMK AO2 T01320116 PWINO
Loading
Personal Weather Stations






























Interactive Weather Map
Tropical Storm Tracking
New forecast layout! Learn more

10-Day Weather Forecast

Advertisements
Track Severe Weather on mobile